Time;durP1;ratioP1;P1;durP2;ratioP2;P2;SDS_P1;SDS_P2;PMS_P1;PMS_P2;Temp;Humidity;BMP_temperature;BMP_pressure;BME280_temperature;BME280_humidity;BME280_pressure;Samples;Min_cycle;Max_cycle;Signal;HPM_P1;HPM_P2
2022/03/11 00:01:26;;;;;;;9.10;6.83;;;8.00;99.90;;;;;;6208076;23;20257;-80
2022/03/11 00:03:52;;;;;;;9.07;6.13;;;8.00;99.90;;;;;;6207273;23;20185;-82
2022/03/11 00:06:19;;;;;;;8.70;6.27;;;8.00;99.90;;;;;;6206841;23;20245;-81
2022/03/11 00:08:46;;;;;;;9.23;6.47;;;7.90;99.90;;;;;;6206130;23;20181;-80
2022/03/11 00:11:13;;;;;;;9.23;6.60;;;8.00;99.90;;;;;;6205619;23;20173;-80
2022/03/11 00:13:39;;;;;;;9.97;6.70;;;8.00;99.90;;;;;;6205766;23;20198;-81
2022/03/11 00:16:06;;;;;;;11.93;7.00;;;7.90;99.90;;;;;;6205923;23;20178;-79
2022/03/11 00:18:35;;;;;;;11.43;6.77;;;7.90;99.90;;;;;;6206512;23;20230;-81
2022/03/11 00:21:01;;;;;;;9.23;6.13;;;7.90;99.90;;;;;;6207865;23;20232;-82
2022/03/11 00:23:28;;;;;;;10.23;7.03;;;7.80;99.90;;;;;;6207648;23;20166;-82
2022/03/11 00:25:55;;;;;;;8.67;5.87;;;7.80;99.90;;;;;;6207244;23;20174;-81
2022/03/11 00:28:22;;;;;;;10.70;7.03;;;7.80;99.90;;;;;;6207942;23;20181;-82
2022/03/11 00:30:48;;;;;;;9.47;6.43;;;7.70;99.90;;;;;;6209193;23;20182;-80
2022/03/11 00:33:15;;;;;;;9.63;6.80;;;7.70;99.90;;;;;;6208144;23;20190;-81
2022/03/11 00:35:43;;;;;;;7.77;6.07;;;7.60;99.90;;;;;;6206257;23;20194;-81
2022/03/11 00:38:10;;;;;;;14.40;6.77;;;7.60;99.90;;;;;;6206428;23;20178;-81
2022/03/11 00:40:37;;;;;;;10.47;7.13;;;7.60;99.90;;;;;;6207873;23;20202;-83
2022/03/11 00:43:04;;;;;;;11.20;7.73;;;7.50;99.90;;;;;;6207664;23;20182;-80
2022/03/11 00:45:31;;;;;;;10.07;7.30;;;7.50;99.90;;;;;;6205459;23;20185;-79
2022/03/11 00:47:57;;;;;;;10.03;6.67;;;7.40;99.90;;;;;;6206255;23;20181;-78
2022/03/11 00:50:24;;;;;;;10.53;6.87;;;7.30;99.90;;;;;;6206307;23;20209;-79
2022/03/11 00:52:53;;;;;;;10.30;7.63;;;7.30;99.90;;;;;;6204794;23;20595;-79
2022/03/11 00:55:20;;;;;;;10.80;7.30;;;7.30;99.90;;;;;;6205852;23;20180;-78
2022/03/11 00:57:47;;;;;;;11.57;7.50;;;7.30;99.90;;;;;;6205273;23;20189;-77
2022/03/11 01:00:15;;;;;;;8.50;6.93;;;7.20;99.90;;;;;;6205190;23;20494;-77
2022/03/11 01:02:42;;;;;;;10.63;7.20;;;7.20;99.90;;;;;;6205588;23;20185;-80
2022/03/11 01:05:10;;;;;;;10.17;7.07;;;7.10;99.90;;;;;;6206359;23;20173;-76
2022/03/11 01:07:38;;;;;;;9.63;6.87;;;7.00;99.90;;;;;;6203399;23;20248;-78
2022/03/11 01:10:07;;;;;;;10.53;8.13;;;7.00;99.90;;;;;;6205276;23;20240;-78
2022/03/11 01:12:34;;;;;;;9.77;6.73;;;6.90;99.90;;;;;;6204896;23;20223;-78
2022/03/11 01:15:02;;;;;;;10.03;7.60;;;6.80;99.90;;;;;;6204736;23;20197;-77
2022/03/11 01:17:28;;;;;;;11.30;7.83;;;6.80;99.90;;;;;;6205702;23;20185;-76
2022/03/11 01:19:55;;;;;;;10.97;7.37;;;6.80;99.90;;;;;;6204801;23;20174;-78
2022/03/11 01:22:22;;;;;;;11.60;8.43;;;6.70;99.90;;;;;;6205186;23;20177;-78
2022/03/11 01:24:49;;;;;;;10.87;7.67;;;6.60;99.90;;;;;;6205053;23;20174;-76
2022/03/11 01:27:17;;;;;;;11.97;8.13;;;6.60;99.90;;;;;;6204364;23;20182;-80
2022/03/11 01:29:44;;;;;;;12.83;7.80;;;6.50;99.90;;;;;;6205860;23;20178;-76
2022/03/11 01:32:10;;;;;;;12.30;7.70;;;6.50;99.90;;;;;;6207358;23;20178;-79
2022/03/11 01:34:37;;;;;;;11.00;8.00;;;6.40;99.90;;;;;;6206410;23;20224;-81
2022/03/11 01:37:05;;;;;;;11.33;7.93;;;6.40;99.90;;;;;;6206348;23;20189;-80
2022/03/11 01:39:32;;;;;;;9.73;7.00;;;6.30;99.90;;;;;;6205763;23;20221;-81
2022/03/11 01:41:59;;;;;;;10.13;7.60;;;6.30;99.90;;;;;;6204619;23;20613;-76
2022/03/11 01:44:27;;;;;;;12.37;8.50;;;6.20;99.90;;;;;;6204799;23;20475;-78
2022/03/11 01:46:54;;;;;;;11.83;8.07;;;6.20;99.90;;;;;;6205812;23;20185;-78
2022/03/11 01:49:22;;;;;;;10.30;7.37;;;6.10;99.90;;;;;;6205029;23;20170;-76
2022/03/11 01:51:49;;;;;;;12.13;7.50;;;6.10;99.90;;;;;;6205079;23;20170;-77
2022/03/11 01:54:16;;;;;;;10.40;7.00;;;6.10;99.90;;;;;;6204733;23;20194;-76
2022/03/11 01:56:43;;;;;;;10.17;7.33;;;6.00;99.90;;;;;;6204889;23;20174;-77
2022/03/11 01:59:11;;;;;;;11.40;7.90;;;5.90;99.90;;;;;;6204177;23;20426;-77
2022/03/11 02:01:39;;;;;;;13.23;7.47;;;5.90;99.90;;;;;;6204796;23;20180;-76
2022/03/11 02:04:06;;;;;;;10.87;7.50;;;5.90;99.90;;;;;;6204525;23;20183;-75
2022/03/11 02:06:33;;;;;;;13.13;8.33;;;5.80;99.90;;;;;;6204097;23;20626;-77
2022/03/11 02:09:02;;;;;;;12.20;8.30;;;5.80;99.90;;;;;;6205368;23;20181;-79
2022/03/11 02:11:29;;;;;;;11.13;7.73;;;5.80;99.90;;;;;;6205432;23;20488;-77
2022/03/11 02:13:57;;;;;;;12.13;8.03;;;5.80;99.90;;;;;;6204366;23;20194;-80
2022/03/11 02:16:25;;;;;;;12.93;8.50;;;5.80;99.90;;;;;;6203553;23;20456;-77
2022/03/11 02:18:54;;;;;;;12.33;8.90;;;5.80;99.90;;;;;;6205016;23;20571;-78
2022/03/11 02:21:23;;;;;;;14.00;8.13;;;5.80;99.90;;;;;;6204261;23;20177;-76
2022/03/11 02:23:52;;;;;;;12.47;8.40;;;5.80;99.90;;;;;;6203626;23;20202;-78
2022/03/11 02:26:21;;;;;;;13.87;8.57;;;5.80;99.90;;;;;;6204156;23;20178;-77
2022/03/11 02:28:49;;;;;;;13.67;8.97;;;5.80;99.90;;;;;;6204680;23;20173;-77
2022/03/11 02:31:16;;;;;;;12.30;8.13;;;5.80;99.90;;;;;;6204851;23;20186;-82
2022/03/11 02:33:43;;;;;;;13.40;8.03;;;5.70;99.90;;;;;;6205778;23;20190;-79
2022/03/11 02:36:10;;;;;;;16.10;9.10;;;5.70;99.90;;;;;;6205296;23;20202;-76
2022/03/11 02:38:37;;;;;;;13.00;8.20;;;5.70;99.90;;;;;;6202909;23;20261;-76
2022/03/11 02:41:06;;;;;;;13.27;8.67;;;5.70;99.90;;;;;;6203728;23;20213;-78
2022/03/11 02:43:32;;;;;;;13.20;8.80;;;5.70;99.90;;;;;;6204927;23;20592;-79
2022/03/11 02:46:00;;;;;;;12.00;7.90;;;5.70;99.90;;;;;;6203713;23;20184;-77
2022/03/11 02:48:27;;;;;;;11.63;8.17;;;5.70;99.90;;;;;;6213296;22;20263;-77
2022/03/11 02:50:55;;;;;;;13.43;8.20;;;5.70;99.90;;;;;;6234558;23;20831;-78
2022/03/11 02:53:23;;;;;;;12.43;8.67;;;5.60;99.90;;;;;;6234090;23;20177;-79
2022/03/11 02:55:49;;;;;;;13.47;9.03;;;5.60;99.90;;;;;;6235030;23;20204;-79
2022/03/11 02:58:18;;;;;;;11.77;8.70;;;5.60;99.90;;;;;;6234912;23;20177;-78
2022/03/11 03:00:45;;;;;;;12.07;8.00;;;5.60;99.90;;;;;;6234950;23;20188;-78
2022/03/11 03:03:11;;;;;;;15.33;8.93;;;5.60;99.90;;;;;;6235325;23;20173;-78
2022/03/11 03:05:41;;;;;;;11.30;8.43;;;5.60;99.90;;;;;;6234147;23;20914;-78
2022/03/11 03:08:08;;;;;;;12.13;8.30;;;5.60;99.90;;;;;;6234152;23;20520;-78
2022/03/11 03:10:35;;;;;;;12.80;8.40;;;5.60;99.90;;;;;;6233424;23;20173;-79
2022/03/11 03:13:02;;;;;;;13.13;9.20;;;5.50;99.90;;;;;;6233739;23;20788;-78
2022/03/11 03:15:32;;;;;;;12.37;8.13;;;5.60;99.90;;;;;;6234187;23;20239;-78
2022/03/11 03:17:59;;;;;;;12.07;8.50;;;5.60;99.90;;;;;;6235151;23;20244;-81
2022/03/11 03:20:26;;;;;;;11.57;8.43;;;5.60;99.90;;;;;;6238820;23;20192;-80
2022/03/11 03:22:52;;;;;;;12.80;9.00;;;5.70;99.90;;;;;;6239348;23;20173;-79
2022/03/11 03:25:19;;;;;;;12.37;8.70;;;5.70;99.90;;;;;;6238154;23;20176;-81
2022/03/11 03:27:46;;;;;;;11.70;8.40;;;5.70;99.90;;;;;;6238721;23;20181;-80
2022/03/11 03:30:14;;;;;;;14.27;8.60;;;5.70;99.90;;;;;;6238366;23;20177;-80
2022/03/11 03:32:42;;;;;;;12.50;7.90;;;5.70;99.90;;;;;;6237793;23;20188;-78
2022/03/11 03:35:10;;;;;;;13.20;8.90;;;5.70;99.90;;;;;;6236709;23;20201;-78
2022/03/11 03:37:37;;;;;;;13.17;8.67;;;5.70;99.90;;;;;;6206898;23;20256;-78
2022/03/11 03:40:05;;;;;;;13.80;8.70;;;5.70;99.90;;;;;;6207613;23;20181;-77
2022/03/11 03:42:32;;;;;;;12.03;8.37;;;5.70;99.90;;;;;;6206193;23;20238;-79
2022/03/11 03:44:58;;;;;;;11.97;8.37;;;5.70;99.90;;;;;;6206467;23;20483;-78
2022/03/11 03:47:25;;;;;;;12.37;9.13;;;5.60;99.90;;;;;;6206532;23;20181;-76
2022/03/11 03:49:53;;;;;;;13.73;9.07;;;5.60;99.90;;;;;;6205731;23;20216;-77
2022/03/11 03:52:20;;;;;;;14.63;9.47;;;5.60;99.90;;;;;;6206293;23;20178;-77
2022/03/11 03:54:47;;;;;;;15.37;8.63;;;5.60;99.90;;;;;;6206524;23;20197;-78
2022/03/11 03:57:14;;;;;;;17.17;9.80;;;5.60;99.90;;;;;;6205858;23;20181;-78
2022/03/11 03:59:40;;;;;;;12.00;8.03;;;5.60;99.90;;;;;;6207343;23;20185;-77
2022/03/11 04:02:07;;;;;;;13.90;9.27;;;5.50;99.90;;;;;;6206490;23;20189;-77
2022/03/11 04:04:34;;;;;;;15.10;9.63;;;5.50;99.90;;;;;;6206285;23;20181;-79
2022/03/11 04:07:02;;;;;;;11.17;8.00;;;5.50;99.90;;;;;;6206745;23;20174;-77
2022/03/11 04:09:29;;;;;;;12.67;8.77;;;5.50;99.90;;;;;;6205777;23;20174;-78
2022/03/11 04:11:56;;;;;;;13.23;8.80;;;5.50;99.90;;;;;;6206114;23;20174;-81
2022/03/11 04:14:23;;;;;;;12.47;8.63;;;5.50;99.90;;;;;;6204795;23;20201;-79
2022/03/11 04:16:49;;;;;;;15.00;9.53;;;5.50;99.90;;;;;;6205598;23;20170;-79
2022/03/11 04:19:16;;;;;;;14.47;9.33;;;5.50;99.90;;;;;;6205762;23;20775;-77
2022/03/11 04:21:43;;;;;;;16.23;8.93;;;5.50;99.90;;;;;;6205547;23;20174;-80
2022/03/11 04:24:14;;;;;;;13.60;9.13;;;5.40;99.90;;;;;;6204881;23;20173;-78
2022/03/11 04:26:43;;;;;;;17.57;10.73;;;5.40;99.90;;;;;;6207047;23;20170;-78
2022/03/11 04:29:10;;;;;;;17.43;9.33;;;5.50;99.90;;;;;;6207281;23;20174;-80
2022/03/11 04:31:37;;;;;;;16.77;9.30;;;5.40;99.90;;;;;;6206396;23;20194;-80
2022/03/11 04:34:04;;;;;;;12.03;8.63;;;5.40;99.90;;;;;;6207387;23;20174;-80
2022/03/11 04:36:33;;;;;;;14.53;8.60;;;5.40;99.90;;;;;;6207062;23;20204;-79
2022/03/11 04:39:00;;;;;;;13.00;9.17;;;5.50;99.90;;;;;;6207019;23;20166;-78
2022/03/11 04:41:29;;;;;;;13.47;8.87;;;5.50;99.90;;;;;;6207025;23;20213;-78
2022/03/11 04:43:56;;;;;;;14.50;9.87;;;5.50;99.90;;;;;;6205944;23;20178;-78
2022/03/11 04:46:22;;;;;;;15.80;10.47;;;5.50;99.90;;;;;;6205167;23;20175;-78
2022/03/11 04:48:49;;;;;;;15.27;10.00;;;5.50;99.90;;;;;;6204944;23;20201;-77
2022/03/11 04:51:16;;;;;;;14.57;9.90;;;5.50;99.90;;;;;;6205508;23;20174;-78
2022/03/11 04:53:43;;;;;;;12.27;8.80;;;5.50;99.90;;;;;;6205332;23;20170;-79
2022/03/11 04:56:10;;;;;;;14.80;9.23;;;5.50;99.90;;;;;;6206071;23;20208;-77
2022/03/11 04:58:38;;;;;;;15.23;9.63;;;5.50;99.90;;;;;;6203839;23;20715;-77
2022/03/11 05:01:06;;;;;;;15.83;9.57;;;5.50;99.90;;;;;;6205421;23;20170;-78
2022/03/11 05:03:33;;;;;;;12.73;8.50;;;5.50;99.90;;;;;;6206045;23;20792;-77
2022/03/11 05:06:00;;;;;;;14.67;8.87;;;5.50;99.90;;;;;;6205175;23;20181;-78
2022/03/11 05:08:27;;;;;;;13.73;8.50;;;5.40;99.90;;;;;;6205312;23;20188;-79
2022/03/11 05:10:53;;;;;;;13.53;8.63;;;5.40;99.90;;;;;;6205426;23;20415;-79
2022/03/11 05:13:20;;;;;;;13.90;9.20;;;5.40;99.90;;;;;;6204444;23;20185;-78
2022/03/11 05:15:48;;;;;;;12.60;9.03;;;5.40;99.90;;;;;;6205162;23;20209;-79
2022/03/11 05:18:15;;;;;;;11.57;8.10;;;5.40;99.90;;;;;;6205190;23;20185;-78
2022/03/11 05:20:42;;;;;;;14.93;8.93;;;5.40;99.90;;;;;;6204114;23;20170;-76
2022/03/11 05:23:08;;;;;;;15.03;8.80;;;5.40;99.90;;;;;;6204530;23;20507;-76
2022/03/11 05:25:35;;;;;;;15.30;9.30;;;5.40;99.90;;;;;;6205469;23;20572;-81
2022/03/11 05:28:02;;;;;;;13.07;8.23;;;5.40;99.90;;;;;;6204827;23;20186;-80
2022/03/11 05:30:29;;;;;;;10.90;8.00;;;5.30;99.90;;;;;;6205636;23;20182;-78
2022/03/11 05:32:57;;;;;;;12.33;8.83;;;5.30;99.90;;;;;;6205097;23;20170;-77
2022/03/11 05:35:24;;;;;;;13.03;8.70;;;5.30;99.90;;;;;;6205392;23;20281;-79
2022/03/11 05:37:51;;;;;;;11.70;8.53;;;5.20;99.90;;;;;;6204968;23;20209;-80
2022/03/11 05:40:18;;;;;;;12.73;8.57;;;5.30;99.90;;;;;;6207036;23;20174;-80
2022/03/11 05:42:44;;;;;;;12.53;8.73;;;5.30;99.90;;;;;;6206354;23;20504;-80
2022/03/11 05:45:12;;;;;;;17.57;8.70;;;5.20;99.90;;;;;;6207054;23;20174;-80
2022/03/11 05:47:39;;;;;;;12.80;9.00;;;5.20;99.90;;;;;;6206654;23;20181;-79
2022/03/11 05:50:08;;;;;;;14.20;8.90;;;5.20;99.90;;;;;;6206186;23;20767;-80
2022/03/11 05:52:37;;;;;;;14.17;9.33;;;5.20;99.90;;;;;;6204598;23;20177;-77
2022/03/11 05:55:04;;;;;;;12.83;8.30;;;5.10;99.90;;;;;;6207499;23;20267;-80
2022/03/11 05:57:31;;;;;;;12.47;8.73;;;5.10;99.90;;;;;;6207164;23;20173;-81
2022/03/11 05:59:58;;;;;;;16.30;9.00;;;5.10;99.90;;;;;;6207207;23;20174;-78
2022/03/11 06:02:25;;;;;;;15.27;8.47;;;5.00;99.90;;;;;;6206269;23;20444;-79
2022/03/11 06:04:52;;;;;;;12.53;8.77;;;5.10;99.90;;;;;;6205567;23;20178;-81
2022/03/11 06:07:20;;;;;;;15.67;8.47;;;5.00;99.90;;;;;;6206222;23;20185;-80
2022/03/11 06:09:47;;;;;;;13.27;8.87;;;5.10;99.90;;;;;;6206000;23;20173;-80
2022/03/11 06:12:15;;;;;;;14.13;8.97;;;5.00;99.90;;;;;;6207284;23;20240;-81
2022/03/11 06:14:41;;;;;;;11.90;8.17;;;5.00;99.90;;;;;;6205994;23;20185;-82
2022/03/11 06:17:08;;;;;;;12.97;8.73;;;4.90;99.90;;;;;;6206242;23;20166;-82
2022/03/11 06:19:35;;;;;;;12.97;8.40;;;4.90;99.90;;;;;;6204293;23;20543;-78
2022/03/11 06:22:02;;;;;;;12.60;7.83;;;5.00;99.90;;;;;;6205305;23;20193;-78
2022/03/11 06:24:30;;;;;;;11.27;8.40;;;5.00;99.90;;;;;;6204735;23;20178;-76
2022/03/11 06:26:57;;;;;;;12.10;8.70;;;4.90;99.90;;;;;;6204813;23;20634;-76
2022/03/11 06:29:23;;;;;;;12.90;8.50;;;4.90;99.90;;;;;;6204944;23;20174;-79
2022/03/11 06:31:50;;;;;;;13.77;8.87;;;4.90;99.90;;;;;;6204223;23;20174;-78
2022/03/11 06:34:17;;;;;;;13.33;8.67;;;4.90;99.90;;;;;;6204024;23;20178;-76
2022/03/11 06:36:44;;;;;;;13.17;8.60;;;4.90;99.90;;;;;;6203355;23;20197;-77
2022/03/11 06:39:13;;;;;;;18.30;9.43;;;4.90;99.90;;;;;;6205214;23;20547;-77
2022/03/11 06:41:42;;;;;;;12.60;9.03;;;4.90;99.90;;;;;;6203760;23;20484;-77
2022/03/11 06:44:09;;;;;;;13.33;8.20;;;5.00;99.90;;;;;;6204706;23;20201;-78
2022/03/11 06:46:36;;;;;;;15.17;9.97;;;5.00;99.90;;;;;;6203789;23;20626;-78
2022/03/11 06:49:03;;;;;;;11.63;8.27;;;5.00;99.90;;;;;;6204469;23;20206;-78
2022/03/11 06:51:29;;;;;;;13.57;8.90;;;5.00;99.90;;;;;;6203157;23;20205;-78
2022/03/11 06:53:56;;;;;;;20.33;8.57;;;5.10;99.90;;;;;;6205087;23;20562;-78
2022/03/11 06:56:23;;;;;;;12.33;8.50;;;5.10;99.90;;;;;;6206854;23;21019;-77
2022/03/11 06:58:51;;;;;;;15.43;8.10;;;5.10;99.90;;;;;;6205676;23;20174;-78
2022/03/11 07:01:18;;;;;;;11.73;8.60;;;5.10;99.90;;;;;;6206477;23;20166;-77
2022/03/11 07:03:45;;;;;;;12.13;8.57;;;5.20;99.90;;;;;;6206730;23;20209;-78
2022/03/11 07:06:12;;;;;;;13.97;8.80;;;5.20;99.90;;;;;;6206360;23;20174;-77
2022/03/11 07:08:39;;;;;;;11.67;8.10;;;5.30;99.90;;;;;;6205640;23;20174;-77
2022/03/11 07:11:07;;;;;;;14.57;8.83;;;5.30;99.90;;;;;;6207214;23;20180;-77
2022/03/11 07:13:34;;;;;;;14.03;9.03;;;5.40;99.90;;;;;;6205093;23;20184;-77
2022/03/11 07:16:02;;;;;;;15.27;8.27;;;5.50;99.90;;;;;;6206508;23;20201;-78
2022/03/11 07:18:29;;;;;;;14.23;8.20;;;5.50;99.90;;;;;;6205861;23;20638;-78
2022/03/11 07:20:56;;;;;;;13.90;8.40;;;5.60;99.90;;;;;;6205664;23;20181;-78
2022/03/11 07:23:23;;;;;;;12.17;8.83;;;5.60;99.90;;;;;;6207904;23;20166;-79
2022/03/11 07:25:50;;;;;;;14.67;9.53;;;5.70;99.90;;;;;;6208045;23;20448;-78
2022/03/11 07:28:17;;;;;;;12.00;8.67;;;5.70;99.90;;;;;;6206532;23;20170;-79
2022/03/11 07:30:43;;;;;;;10.43;8.10;;;5.80;99.90;;;;;;6206551;23;20193;-79
2022/03/11 07:33:12;;;;;;;12.30;8.50;;;5.90;99.90;;;;;;6206499;23;20185;-77
2022/03/11 07:35:39;;;;;;;11.17;8.63;;;5.90;99.90;;;;;;6206172;23;20607;-81
2022/03/11 07:38:06;;;;;;;12.37;8.60;;;6.00;99.90;;;;;;6206407;23;20178;-78
2022/03/11 07:40:33;;;;;;;13.90;7.87;;;6.10;99.90;;;;;;6205561;23;20174;-77
2022/03/11 07:43:00;;;;;;;12.90;8.37;;;6.10;99.90;;;;;;6207024;23;20185;-78
2022/03/11 07:45:27;;;;;;;12.33;7.97;;;6.30;99.90;;;;;;6206619;23;20226;-77
2022/03/11 07:47:54;;;;;;;12.10;7.83;;;6.40;99.90;;;;;;6205802;23;20175;-78
2022/03/11 07:50:23;;;;;;;15.80;8.00;;;6.50;99.90;;;;;;6204642;23;20170;-79
2022/03/11 07:52:49;;;;;;;12.43;9.13;;;6.50;99.90;;;;;;6206098;23;20212;-77
2022/03/11 07:55:16;;;;;;;14.13;9.00;;;6.60;99.90;;;;;;6205598;23;20432;-79
2022/03/11 07:57:43;;;;;;;13.57;8.83;;;6.60;99.90;;;;;;6206310;23;20181;-77
2022/03/11 08:00:11;;;;;;;11.10;8.33;;;6.70;99.90;;;;;;6206650;23;20174;-78
2022/03/11 08:06:27;;;;;;;14.50;7.80;;;7.00;99.90;;;;;;5938340;23;20337;-77
2022/03/11 08:08:54;;;;;;;12.57;8.27;;;7.10;99.90;;;;;;6055698;23;20184;-77
2022/03/11 08:11:20;;;;;;;12.60;7.80;;;7.20;99.90;;;;;;6165574;23;20181;-81
2022/03/11 08:13:48;;;;;;;17.20;9.10;;;7.20;99.90;;;;;;6208198;23;20193;-77
2022/03/11 08:16:15;;;;;;;14.30;8.30;;;7.30;99.90;;;;;;6205644;23;20798;-78
2022/03/11 08:18:42;;;;;;;16.57;9.00;;;7.40;99.90;;;;;;6206926;23;20178;-77
2022/03/11 08:21:10;;;;;;;11.43;8.17;;;7.50;99.90;;;;;;6206690;23;20178;-79
2022/03/11 08:23:40;;;;;;;10.73;7.60;;;7.60;99.90;;;;;;6199419;23;20620;-79
2022/03/11 08:26:08;;;;;;;12.67;8.47;;;7.60;99.90;;;;;;6207320;23;20249;-80
2022/03/11 08:28:34;;;;;;;15.37;8.27;;;7.80;99.90;;;;;;6206167;23;20174;-78
2022/03/11 08:31:02;;;;;;;17.67;9.40;;;7.90;99.90;;;;;;6205857;23;20178;-78
2022/03/11 08:33:30;;;;;;;12.93;9.07;;;7.90;99.90;;;;;;6206814;23;20861;-79
2022/03/11 08:35:58;;;;;;;14.67;8.40;;;8.00;99.90;;;;;;6205190;23;20320;-81
2022/03/11 08:38:25;;;;;;;12.83;8.83;;;8.10;99.90;;;;;;6206009;23;20174;-81
2022/03/11 08:40:53;;;;;;;13.53;8.80;;;8.20;99.90;;;;;;6206323;23;20216;-80
2022/03/11 08:43:22;;;;;;;16.13;9.67;;;8.40;99.90;;;;;;6206307;23;20178;-80
2022/03/11 08:45:49;;;;;;;15.67;9.03;;;8.40;99.90;;;;;;6206754;23;20177;-81
2022/03/11 08:48:15;;;;;;;13.83;8.70;;;8.50;99.90;;;;;;6206448;23;20205;-81
2022/03/11 08:50:42;;;;;;;12.53;8.90;;;8.60;99.90;;;;;;6208503;23;20166;-82
2022/03/11 08:53:09;;;;;;;12.67;8.53;;;8.70;99.90;;;;;;6208709;23;20174;-79
2022/03/11 08:55:37;;;;;;;15.20;9.10;;;8.70;99.90;;;;;;6207997;23;20422;-80
2022/03/11 08:58:05;;;;;;;13.63;8.70;;;8.80;99.90;;;;;;6208467;23;20174;-82
2022/03/11 09:00:32;;;;;;;16.00;9.40;;;8.90;99.90;;;;;;6208591;23;20174;-80
2022/03/11 09:02:59;;;;;;;12.00;9.00;;;9.00;99.90;;;;;;6208893;23;20174;-81
2022/03/11 09:05:26;;;;;;;15.40;9.57;;;9.10;99.90;;;;;;6207204;23;20178;-83
2022/03/11 09:07:52;;;;;;;13.07;8.70;;;9.20;99.90;;;;;;6208801;23;20167;-80
2022/03/11 09:10:20;;;;;;;16.67;9.07;;;9.30;99.90;;;;;;6208250;23;20517;-81
2022/03/11 09:12:47;;;;;;;15.67;9.60;;;9.40;99.90;;;;;;6206343;23;20174;-81
2022/03/11 09:15:16;;;;;;;12.70;8.97;;;9.50;99.90;;;;;;6207991;23;20186;-80
2022/03/11 09:17:45;;;;;;;13.13;9.50;;;9.60;99.90;;;;;;6207584;23;20204;-81
2022/03/11 09:20:13;;;;;;;16.67;9.70;;;9.70;99.90;;;;;;6207272;23;20484;-81
2022/03/11 09:22:41;;;;;;;13.53;9.10;;;9.80;99.90;;;;;;6205214;23;20185;-78
2022/03/11 09:25:09;;;;;;;13.37;8.43;;;9.90;99.90;;;;;;6205490;23;20227;-78
2022/03/11 09:27:36;;;;;;;12.73;9.07;;;10.10;99.90;;;;;;6203910;23;20444;-78
2022/03/11 09:30:04;;;;;;;17.10;9.27;;;10.20;99.90;;;;;;6204906;23;20170;-77
2022/03/11 09:32:33;;;;;;;13.20;9.30;;;10.30;99.90;;;;;;6204406;23;20177;-78
2022/03/11 09:35:00;;;;;;;16.43;8.87;;;10.40;99.90;;;;;;6205851;23;20232;-78
2022/03/11 09:37:27;;;;;;;13.23;8.30;;;10.50;99.90;;;;;;6204053;23;20248;-78
2022/03/11 09:39:54;;;;;;;13.77;9.33;;;10.60;99.90;;;;;;6201659;23;20181;-77
2022/03/11 09:42:21;;;;;;;14.37;9.47;;;10.70;99.90;;;;;;6202482;23;20924;-79
2022/03/11 09:44:52;;;;;;;15.03;9.53;;;10.80;99.90;;;;;;6203360;23;20260;-80
2022/03/11 09:47:20;;;;;;;14.97;9.80;;;10.90;99.90;;;;;;6202289;23;20178;-76
2022/03/11 09:49:50;;;;;;;13.10;8.57;;;11.10;99.90;;;;;;6203500;23;20264;-78
2022/03/11 09:52:19;;;;;;;15.47;9.63;;;11.20;99.90;;;;;;6203237;23;20185;-78
2022/03/11 09:54:46;;;;;;;14.17;8.90;;;11.30;99.90;;;;;;6202238;23;20204;-78
2022/03/11 09:57:16;;;;;;;17.33;9.63;;;11.50;99.90;;;;;;6202195;23;20205;-80
2022/03/11 09:59:43;;;;;;;13.37;8.97;;;11.60;99.90;;;;;;6203031;23;20174;-78
2022/03/11 10:02:14;;;;;;;14.47;9.20;;;11.70;99.90;;;;;;6202108;23;20185;-79
2022/03/11 10:04:50;;;;;;;16.90;9.80;;;11.80;99.90;;;;;;6203792;23;20192;-78
2022/03/11 10:07:24;;;;;;;11.83;9.33;;;11.90;99.90;;;;;;6203070;23;20174;-81
2022/03/11 10:09:51;;;;;;;13.80;9.53;;;12.00;99.90;;;;;;6203567;23;20575;-79
2022/03/11 10:12:25;;;;;;;12.77;9.93;;;12.10;99.90;;;;;;6203107;23;20233;-79
2022/03/11 10:14:57;;;;;;;12.57;9.50;;;12.20;99.90;;;;;;6203134;23;20189;-79
2022/03/11 10:17:25;;;;;;;18.33;10.13;;;12.40;99.90;;;;;;6205082;23;20197;-81
2022/03/11 10:20:00;;;;;;;19.00;10.70;;;12.60;99.90;;;;;;6207314;23;20182;-80
2022/03/11 10:22:27;;;;;;;18.40;9.10;;;12.70;99.90;;;;;;6206033;23;20220;-79
2022/03/11 10:24:55;;;;;;;15.23;10.27;;;12.80;99.90;;;;;;6205943;23;20172;-79
2022/03/11 10:27:23;;;;;;;14.17;10.00;;;12.80;99.90;;;;;;6206108;23;20564;-78
2022/03/11 10:29:51;;;;;;;12.30;9.43;;;12.90;99.90;;;;;;6206699;23;20185;-81
2022/03/11 10:32:25;;;;;;;12.00;8.87;;;13.00;99.90;;;;;;6207142;23;20181;-79
2022/03/11 10:34:52;;;;;;;14.93;9.10;;;13.10;99.90;;;;;;6206004;23;20488;-80
2022/03/11 10:37:26;;;;;;;17.00;9.97;;;13.10;99.90;;;;;;6205415;23;20194;-80
2022/03/11 10:39:52;;;;;;;17.40;10.07;;;13.20;99.90;;;;;;6205656;23;20173;-80
2022/03/11 10:42:21;;;;;;;14.80;9.63;;;13.20;99.90;;;;;;6205783;23;20170;-81
2022/03/11 10:44:59;;;;;;;17.03;9.83;;;13.30;99.90;;;;;;6204927;23;20173;-79
2022/03/11 10:47:28;;;;;;;24.63;9.33;;;13.30;99.90;;;;;;6204605;23;20787;-79
2022/03/11 10:49:57;;;;;;;18.13;10.30;;;13.40;99.90;;;;;;6204975;23;20202;-78
2022/03/11 10:52:34;;;;;;;15.77;9.60;;;13.50;99.90;;;;;;6205620;23;20178;-80
2022/03/11 10:55:02;;;;;;;13.57;9.73;;;13.60;99.90;;;;;;6204335;23;20680;-77
2022/03/11 10:57:36;;;;;;;14.83;9.73;;;13.70;99.90;;;;;;6203827;23;20198;-78
2022/03/11 11:00:24;;;;;;;17.97;11.13;;;13.80;99.90;;;;;;6204279;23;20449;-76
2022/03/11 11:02:52;;;;;;;15.50;10.17;;;13.90;99.90;;;;;;6201948;23;20197;-79
2022/03/11 11:05:20;;;;;;;15.93;10.37;;;13.90;99.90;;;;;;6201957;23;20182;-77
2022/03/11 11:07:49;;;;;;;15.17;10.43;;;14.10;99.90;;;;;;6202017;23;20182;-76
2022/03/11 11:10:18;;;;;;;14.63;9.97;;;14.10;99.90;;;;;;6202639;23;20178;-78
2022/03/11 11:12:45;;;;;;;12.63;10.37;;;14.20;99.90;;;;;;6200554;23;20192;-78
2022/03/11 11:15:13;;;;;;;14.70;9.40;;;14.30;99.90;;;;;;6203167;23;20185;-77
2022/03/11 11:17:43;;;;;;;14.27;10.77;;;14.50;99.90;;;;;;6202229;23;20229;-77
2022/03/11 11:20:19;;;;;;;13.13;9.83;;;14.50;99.90;;;;;;6202546;23;20186;-77
2022/03/11 11:22:49;;;;;;;17.80;10.40;;;14.60;99.90;;;;;;6201344;23;20797;-78
2022/03/11 11:25:18;;;;;;;12.43;10.27;;;14.70;99.90;;;;;;6201023;23;20178;-77
2022/03/11 11:27:49;;;;;;;13.40;10.07;;;14.80;99.90;;;;;;6202966;23;20851;-77
2022/03/11 11:30:18;;;;;;;17.00;10.37;;;14.90;99.90;;;;;;6203136;23;20193;-78
2022/03/11 11:32:46;;;;;;;13.63;10.47;;;15.10;99.90;;;;;;6201347;23;20188;-81
2022/03/11 11:35:29;;;;;;;12.60;10.03;;;15.10;99.90;;;;;;6203167;23;20193;-79
2022/03/11 11:37:59;;;;;;;15.40;10.40;;;15.10;99.90;;;;;;6199444;23;20482;-76
2022/03/11 11:40:28;;;;;;;13.10;9.83;;;15.10;99.90;;;;;;6204020;23;20676;-82
2022/03/11 11:43:25;;;;;;;13.57;9.90;;;15.20;99.90;;;;;;6204640;23;20178;-81
2022/03/11 11:45:54;;;;;;;16.70;10.20;;;15.00;99.90;;;;;;6205644;23;20523;-85
2022/03/11 11:48:56;;;;;;;13.40;10.23;;;15.00;99.90;;;;;;6207154;23;20201;-81
2022/03/11 11:51:44;;;;;;;12.73;9.80;;;15.20;99.90;;;;;;6205443;23;20185;-79
2022/03/11 11:54:12;;;;;;;14.00;11.07;;;15.30;99.90;;;;;;6204381;23;20181;-80
2022/03/11 11:56:43;;;;;;;12.07;9.87;;;15.40;99.90;;;;;;6205209;23;20252;-79
2022/03/11 11:59:11;;;;;;;14.63;9.23;;;15.50;99.90;;;;;;6204969;23;20240;-80
2022/03/11 12:01:41;;;;;;;14.93;9.83;;;15.60;99.90;;;;;;6204830;23;20517;-80
2022/03/11 12:04:27;;;;;;;10.67;9.50;;;15.60;99.90;;;;;;6205785;23;20189;-82
2022/03/11 12:06:56;;;;;;;14.20;10.17;;;15.60;99.90;;;;;;6204874;23;20178;-80
2022/03/11 12:09:51;;;;;;;13.40;9.90;;;15.50;99.90;;;;;;6207965;23;20173;-80
2022/03/11 12:12:54;;;;;;;15.10;10.23;;;15.50;99.90;;;;;;6208591;23;20170;-78
2022/03/11 12:15:23;;;;;;;14.83;9.97;;;15.50;99.90;;;;;;6206918;23;20193;-79
2022/03/11 12:17:58;;;;;;;14.87;10.43;;;15.50;99.90;;;;;;6206650;23;20198;-80
2022/03/11 12:20:36;;;;;;;13.93;9.82;;;15.50;99.90;;;;;;6205425;23;20569;-80
2022/03/11 12:23:06;;;;;;;13.47;9.70;;;15.50;99.90;;;;;;6206142;23;20166;-84
2022/03/11 12:25:36;;;;;;;13.02;11.05;;;15.60;99.90;;;;;;6206233;23;20170;-78
2022/03/11 12:28:08;;;;;;;16.60;10.30;;;15.60;99.90;;;;;;6206196;23;20167;-78
2022/03/11 12:30:37;;;;;;;16.38;10.80;;;15.60;99.90;;;;;;6207089;23;20166;-78
2022/03/11 12:33:06;;;;;;;14.90;10.63;;;15.80;99.90;;;;;;6205569;23;20501;-77
2022/03/11 12:35:34;;;;;;;16.25;11.85;;;15.90;99.90;;;;;;6205141;23;20173;-78
2022/03/11 12:38:01;;;;;;;16.77;11.30;;;15.90;99.90;;;;;;6179650;23;20271;-79
2022/03/11 12:40:30;;;;;;;13.70;10.95;;;15.90;99.90;;;;;;6205782;23;20181;-79
2022/03/11 12:43:04;;;;;;;16.67;11.63;;;15.80;99.90;;;;;;6204392;23;20174;-79
2022/03/11 12:45:37;;;;;;;16.00;11.27;;;15.70;99.90;;;;;;6206010;23;20686;-81
2022/03/11 12:48:04;;;;;;;16.70;10.77;;;15.70;99.90;;;;;;6204956;23;20162;-80
2022/03/11 12:50:31;;;;;;;17.70;11.30;;;15.80;99.90;;;;;;6204308;23;20170;-80
2022/03/11 12:53:00;;;;;;;17.00;11.83;;;15.90;99.90;;;;;;6203504;23;20189;-80